createdAt,value
2018-07-15T00:02:46.864Z,16.17
2018-07-15T00:06:20.095Z,16.30
2018-07-15T00:09:53.335Z,15.93
2018-07-15T00:13:26.590Z,16.83
2018-07-15T00:16:59.956Z,16.73
2018-07-15T00:20:32.949Z,16.07
2018-07-15T00:24:05.945Z,15.37
2018-07-15T00:27:38.975Z,15.03
2018-07-15T00:31:12.241Z,15.20
2018-07-15T00:34:45.241Z,15.50
2018-07-15T00:38:18.481Z,14.47
2018-07-15T00:41:51.737Z,16.27
2018-07-15T00:45:25.043Z,15.50
2018-07-15T00:48:58.301Z,16.70
2018-07-15T00:52:31.566Z,16.30
2018-07-15T00:56:04.840Z,18.00
2018-07-15T00:59:38.112Z,15.77
2018-07-15T01:03:11.369Z,18.07
2018-07-15T01:06:44.632Z,15.03
2018-07-15T01:10:17.877Z,14.90
2018-07-15T01:13:51.261Z,15.40
2018-07-15T01:17:24.534Z,16.03
2018-07-15T01:20:57.548Z,15.73
2018-07-15T01:24:30.814Z,14.93
2018-07-15T01:28:04.058Z,15.70
2018-07-15T01:31:37.345Z,15.50
2018-07-15T01:35:10.606Z,13.70
2018-07-15T01:38:43.928Z,15.70
2018-07-15T01:42:17.146Z,14.07
2018-07-15T01:45:50.408Z,12.80
2018-07-15T01:49:23.682Z,14.40
2018-07-15T01:52:57.529Z,16.83
2018-07-15T01:56:30.778Z,15.97
2018-07-15T02:00:04.504Z,15.83
2018-07-15T02:03:37.779Z,16.30
2018-07-15T02:07:11.036Z,13.90
2018-07-15T02:10:44.308Z,15.00
2018-07-15T02:14:17.565Z,14.40
2018-07-15T02:17:50.588Z,14.87
2018-07-15T02:21:23.840Z,16.80
2018-07-15T02:24:57.094Z,15.53
2018-07-15T02:28:30.380Z,15.37
2018-07-15T02:32:03.624Z,14.20
2018-07-15T02:35:36.893Z,16.13
2018-07-15T02:39:10.996Z,15.10
2018-07-15T02:42:44.248Z,15.57
2018-07-15T02:46:17.590Z,18.20
2018-07-15T02:49:50.860Z,15.50
2018-07-15T02:53:24.127Z,16.00
2018-07-15T02:56:57.371Z,16.73
2018-07-15T03:00:31.171Z,16.67
2018-07-15T03:04:04.453Z,16.60
2018-07-15T03:07:37.705Z,16.40
2018-07-15T03:11:10.972Z,16.60
2018-07-15T03:14:44.245Z,19.23
2018-07-15T03:18:17.556Z,16.13
2018-07-15T03:21:50.796Z,14.40
2018-07-15T03:25:24.066Z,15.93
2018-07-15T03:28:57.317Z,16.13
2018-07-15T03:32:30.581Z,16.73
2018-07-15T03:36:03.848Z,17.10
2018-07-15T03:39:37.113Z,16.70
2018-07-15T03:43:10.429Z,15.10
2018-07-15T03:46:43.673Z,17.07
2018-07-15T03:50:16.934Z,17.60
2018-07-15T03:53:50.197Z,15.20
2018-07-15T03:57:23.212Z,15.87
2018-07-15T04:00:56.460Z,15.60
2018-07-15T04:04:29.728Z,17.33
2018-07-15T04:08:03.034Z,16.03
2018-07-15T04:11:36.633Z,17.47
2018-07-15T04:15:09.897Z,16.50
2018-07-15T04:18:43.172Z,15.93
2018-07-15T04:22:16.535Z,17.87
2018-07-15T04:25:49.777Z,17.63
2018-07-15T04:29:23.028Z,18.20
2018-07-15T04:32:56.349Z,16.60
2018-07-15T04:36:29.628Z,16.17
2018-07-15T04:40:02.880Z,17.90
2018-07-15T04:43:36.144Z,17.70
2018-07-15T04:47:09.417Z,18.20
2018-07-15T04:50:42.661Z,18.37
2018-07-15T04:54:15.965Z,18.37
2018-07-15T04:57:49.252Z,16.87
2018-07-15T05:01:22.576Z,17.57
2018-07-15T05:04:55.842Z,17.30
2018-07-15T05:08:29.120Z,18.07
2018-07-15T05:12:02.381Z,15.00
2018-07-15T05:15:35.646Z,16.70
2018-07-15T05:19:08.950Z,17.43
2018-07-15T05:22:42.252Z,17.80
2018-07-15T05:26:15.541Z,17.03
2018-07-15T05:29:48.793Z,16.97
2018-07-15T05:33:22.345Z,17.83
2018-07-15T05:36:55.604Z,16.90
2018-07-15T05:40:28.842Z,18.20
2018-07-15T05:44:02.116Z,18.47
2018-07-15T05:47:35.140Z,18.30
2018-07-15T05:51:08.729Z,18.80
2018-07-15T05:54:41.993Z,19.77
2018-07-15T05:58:15.277Z,19.53
2018-07-15T06:01:48.549Z,18.07
2018-07-15T06:05:21.809Z,17.20
2018-07-15T06:08:55.105Z,18.10
2018-07-15T06:12:28.376Z,17.27
2018-07-15T06:16:01.657Z,19.20
2018-07-15T06:19:34.949Z,16.03
2018-07-15T06:23:08.259Z,17.90
2018-07-15T06:26:41.588Z,16.73
2018-07-15T06:30:14.874Z,15.10
2018-07-15T06:33:48.122Z,17.90
2018-07-15T06:37:21.416Z,14.83
2018-07-15T06:40:54.679Z,17.83
2018-07-15T06:44:27.948Z,17.00
2018-07-15T06:48:01.245Z,14.57
2018-07-15T06:51:34.508Z,14.40
2018-07-15T06:55:07.804Z,14.17
2018-07-15T06:58:41.109Z,14.97
2018-07-15T07:02:14.392Z,15.33
2018-07-15T07:05:47.652Z,16.10
2018-07-15T07:09:21.037Z,13.90
2018-07-15T07:12:54.346Z,14.20
2018-07-15T07:16:27.621Z,15.13
2018-07-15T07:20:00.876Z,14.63
2018-07-15T07:23:34.143Z,14.00
2018-07-15T07:27:07.413Z,15.23
2018-07-15T07:30:40.711Z,14.93
2018-07-15T07:34:13.964Z,13.00
2018-07-15T07:37:47.268Z,14.17
2018-07-15T07:41:20.586Z,13.63
2018-07-15T07:44:53.708Z,15.00
2018-07-15T07:48:26.952Z,14.07
2018-07-15T07:52:00.321Z,14.10
2018-07-15T07:55:33.633Z,13.43
2018-07-15T07:59:06.921Z,14.17
2018-07-15T08:02:40.173Z,13.07
2018-07-15T08:06:13.443Z,13.60
2018-07-15T08:09:46.468Z,12.57
2018-07-15T08:13:19.742Z,14.27
2018-07-15T08:16:52.785Z,13.87
2018-07-15T08:20:26.074Z,13.60
2018-07-15T08:23:59.340Z,14.80
2018-07-15T08:27:33.165Z,12.57
2018-07-15T08:31:13.752Z,12.27
2018-07-15T08:34:47.034Z,12.77
2018-07-15T08:38:20.302Z,11.70
2018-07-15T08:41:53.582Z,11.40
2018-07-15T08:45:26.861Z,11.80
2018-07-15T08:49:00.797Z,11.63
2018-07-15T08:52:34.076Z,11.23
2018-07-15T08:56:07.345Z,10.93
2018-07-15T08:59:40.607Z,12.30
2018-07-15T09:03:13.904Z,10.40
2018-07-15T09:06:47.177Z,11.23
2018-07-15T09:10:20.428Z,10.63
2018-07-15T09:13:53.713Z,12.17
2018-07-15T09:17:26.993Z,11.00
2018-07-15T09:21:00.265Z,10.67
2018-07-15T09:24:34.316Z,8.90
2018-07-15T09:28:07.607Z,9.97
2018-07-15T09:31:40.864Z,10.00
2018-07-15T09:35:14.198Z,10.80
2018-07-15T09:38:47.164Z,9.60
2018-07-15T09:42:20.200Z,9.30
2018-07-15T09:45:53.501Z,10.73
2018-07-15T09:49:26.782Z,9.63
2018-07-15T09:53:00.035Z,10.40
2018-07-15T09:56:33.278Z,9.10
2018-07-15T10:00:08.159Z,8.50
2018-07-15T10:03:41.458Z,10.20
2018-07-15T10:07:14.723Z,8.50
2018-07-15T10:10:48.025Z,9.00
2018-07-15T10:14:21.292Z,7.30
2018-07-15T10:17:54.301Z,5.90
2018-07-15T10:21:27.549Z,6.30
2018-07-15T10:25:00.816Z,5.97
2018-07-15T10:28:34.069Z,6.67
2018-07-15T10:32:07.368Z,8.80
2018-07-15T10:35:40.625Z,7.20
2018-07-15T10:39:14.484Z,6.30
2018-07-15T10:42:47.737Z,6.57
2018-07-15T10:46:21.040Z,7.03
2018-07-15T10:49:54.292Z,6.30
2018-07-15T10:53:27.629Z,6.40
2018-07-15T10:57:00.869Z,6.70
2018-07-15T11:00:34.143Z,6.13
2018-07-15T11:04:07.418Z,7.73
2018-07-15T11:07:40.674Z,6.77
2018-07-15T11:11:13.936Z,7.37
2018-07-15T11:14:47.205Z,8.00
2018-07-15T11:18:20.460Z,7.27
2018-07-15T11:21:53.840Z,7.27
2018-07-15T11:25:27.164Z,6.20
2018-07-15T11:29:00.422Z,6.53
2018-07-15T11:32:33.865Z,6.10
2018-07-15T11:36:07.437Z,5.83
2018-07-15T11:39:40.707Z,5.73
2018-07-15T11:43:14.006Z,5.93
2018-07-15T11:46:47.265Z,6.00
2018-07-15T11:50:20.529Z,6.03
2018-07-15T11:53:53.802Z,6.40
2018-07-15T11:57:27.100Z,6.43
2018-07-15T12:01:00.350Z,6.30
2018-07-15T12:04:33.671Z,6.10
2018-07-15T12:08:06.953Z,7.70
2018-07-15T12:11:40.605Z,7.60
2018-07-15T12:15:13.882Z,6.90
2018-07-15T12:18:47.249Z,6.43
2018-07-15T12:22:20.541Z,7.27
2018-07-15T12:25:53.815Z,8.73
2018-07-15T12:29:27.104Z,6.93
2018-07-15T12:33:00.360Z,6.80
2018-07-15T12:36:33.612Z,6.83
2018-07-15T12:40:06.923Z,6.50
2018-07-15T12:43:40.192Z,10.77
2018-07-15T12:47:13.464Z,10.07
2018-07-15T12:50:46.717Z,6.23
2018-07-15T12:54:19.969Z,7.97
2018-07-15T12:57:53.216Z,7.90
2018-07-15T13:01:26.481Z,10.03
2018-07-15T13:04:59.726Z,7.40
2018-07-15T13:08:32.984Z,8.43
2018-07-15T13:12:06.268Z,9.03
2018-07-15T13:15:39.536Z,7.70
2018-07-15T13:19:12.790Z,8.03
2018-07-15T13:22:46.068Z,8.30
2018-07-15T13:26:19.896Z,9.67
2018-07-15T13:29:53.153Z,7.10
2018-07-15T13:33:26.476Z,7.53
2018-07-15T13:36:59.741Z,6.47
2018-07-15T13:40:33.000Z,5.80
2018-07-15T13:44:06.245Z,6.63
2018-07-15T13:47:39.513Z,6.70
2018-07-15T13:51:12.785Z,7.20
2018-07-15T13:54:46.058Z,5.67
2018-07-15T13:58:19.115Z,6.37
2018-07-15T14:01:52.369Z,7.27
2018-07-15T14:05:25.642Z,6.90
2018-07-15T14:08:58.912Z,6.30
2018-07-15T14:12:32.192Z,5.40
2018-07-15T14:16:05.517Z,4.90
2018-07-15T14:19:38.792Z,4.80
2018-07-15T14:23:12.084Z,5.20
2018-07-15T14:26:45.344Z,5.10
2018-07-15T14:30:18.625Z,5.90
2018-07-15T14:33:51.905Z,6.43
2018-07-15T14:37:25.161Z,4.63
2018-07-15T14:40:58.201Z,6.87
2018-07-15T14:44:31.477Z,4.53
2018-07-15T14:48:04.949Z,5.60
2018-07-15T14:51:38.227Z,6.50
2018-07-15T14:55:11.488Z,5.17
2018-07-15T14:58:44.762Z,5.83
2018-07-15T15:02:18.060Z,4.80
2018-07-15T15:05:51.364Z,5.03
2018-07-15T15:09:25.061Z,4.73
2018-07-15T15:12:58.325Z,5.13
2018-07-15T15:16:31.620Z,4.73
2018-07-15T15:20:04.886Z,5.10
2018-07-15T15:23:38.172Z,5.23
2018-07-15T15:27:11.573Z,6.70
2018-07-15T15:30:44.837Z,4.47
2018-07-15T15:34:18.117Z,5.80
2018-07-15T15:37:51.389Z,4.50
2018-07-15T15:41:24.653Z,4.60
2018-07-15T15:44:58.438Z,5.30
2018-07-15T15:48:31.935Z,3.50
2018-07-15T15:52:05.220Z,3.80
2018-07-15T15:55:38.481Z,3.13
2018-07-15T15:59:11.730Z,4.67
2018-07-15T16:02:44.993Z,4.37
2018-07-15T16:06:18.077Z,4.27
2018-07-15T16:09:51.377Z,4.10
2018-07-15T16:13:24.662Z,4.37
2018-07-15T16:16:57.921Z,4.70
2018-07-15T16:20:31.226Z,4.53
2018-07-15T16:24:04.550Z,5.17
2018-07-15T16:27:37.822Z,5.03
2018-07-15T16:31:11.136Z,5.37
2018-07-15T16:34:49.201Z,4.63
2018-07-15T16:38:22.541Z,5.27
2018-07-15T16:41:55.977Z,5.57
2018-07-15T16:45:29.417Z,5.00
2018-07-15T16:49:02.729Z,5.37
2018-07-15T16:52:35.722Z,5.40
2018-07-15T16:56:09.000Z,5.60
2018-07-15T16:59:42.290Z,4.97
2018-07-15T17:03:15.922Z,5.30
2018-07-15T17:06:49.179Z,6.67
2018-07-15T17:10:22.442Z,6.93
2018-07-15T17:13:55.443Z,6.40
2018-07-15T17:17:28.731Z,5.40
2018-07-15T17:21:01.856Z,5.13
2018-07-15T17:24:35.137Z,5.47
2018-07-15T17:28:08.431Z,4.90
2018-07-15T17:31:41.799Z,6.03
2018-07-15T17:35:15.403Z,5.23
2018-07-15T17:38:48.651Z,7.40
2018-07-15T17:42:22.090Z,7.27
2018-07-15T17:45:55.379Z,6.20
2018-07-15T17:49:28.648Z,6.57
2018-07-15T17:53:05.167Z,6.20
2018-07-15T17:56:39.411Z,6.03
2018-07-15T18:00:13.820Z,5.10
2018-07-15T18:03:48.240Z,5.30
2018-07-15T18:07:25.177Z,5.20
2018-07-15T18:11:02.427Z,6.47
2018-07-15T18:14:39.569Z,6.30
2018-07-15T18:18:20.007Z,5.30
2018-07-15T18:21:53.433Z,6.03
2018-07-15T18:25:26.950Z,5.87
2018-07-15T18:29:00.184Z,6.60
2018-07-15T18:32:33.562Z,6.50
2018-07-15T18:36:07.814Z,6.70
2018-07-15T18:39:41.088Z,7.00
2018-07-15T18:43:14.319Z,6.80
2018-07-15T18:46:48.200Z,7.63
2018-07-15T18:50:22.007Z,7.03
2018-07-15T18:53:55.277Z,7.00
2018-07-15T18:57:28.608Z,7.10
2018-07-15T19:01:01.881Z,5.93
2018-07-15T19:04:35.148Z,5.53
2018-07-15T19:08:08.380Z,5.50
2018-07-15T19:11:41.662Z,6.43
2018-07-15T19:15:15.782Z,6.40
2018-07-15T19:18:49.047Z,7.30
2018-07-15T19:22:22.315Z,7.20
2018-07-15T19:25:55.633Z,6.33
2018-07-15T19:29:29.226Z,6.10
2018-07-15T19:33:02.854Z,6.77
2018-07-15T19:36:37.588Z,7.10
2018-07-15T19:40:11.051Z,8.10
2018-07-15T19:43:44.288Z,6.80
2018-07-15T19:47:18.429Z,7.20
2018-07-15T19:50:53.960Z,6.83
2018-07-15T19:54:27.526Z,7.63
2018-07-15T19:58:01.027Z,7.17
2018-07-15T20:01:34.648Z,6.97
2018-07-15T20:05:09.081Z,9.17
2018-07-15T20:08:42.471Z,6.93
2018-07-15T20:12:18.052Z,8.30
2018-07-15T20:15:51.862Z,7.73
2018-07-15T20:19:25.171Z,8.30
2018-07-15T20:23:01.480Z,8.70
2018-07-15T20:26:36.994Z,7.83
2018-07-15T20:30:11.891Z,9.47
2018-07-15T20:33:49.164Z,8.47
2018-07-15T20:37:23.037Z,9.00
2018-07-15T20:40:56.580Z,8.57
2018-07-15T20:44:30.521Z,8.57
2018-07-15T20:48:03.749Z,8.43
2018-07-15T20:51:37.000Z,8.13
2018-07-15T20:55:10.265Z,9.73
2018-07-15T20:58:44.627Z,10.10
2018-07-15T21:02:17.954Z,9.57
2018-07-15T21:05:52.898Z,9.20
2018-07-15T21:09:29.010Z,9.30
2018-07-15T21:13:02.306Z,10.30
2018-07-15T21:16:35.585Z,10.30
2018-07-15T21:20:08.868Z,8.20
2018-07-15T21:23:42.088Z,9.10
2018-07-15T21:27:15.343Z,10.10
2018-07-15T21:30:48.575Z,9.97
2018-07-15T21:34:21.819Z,9.50
2018-07-15T21:37:55.123Z,8.20
2018-07-15T21:41:28.365Z,7.90
2018-07-15T21:45:01.603Z,8.80
2018-07-15T21:48:34.598Z,9.07
2018-07-15T21:52:07.833Z,10.07
2018-07-15T21:55:41.113Z,8.30
2018-07-15T21:59:14.359Z,10.27
2018-07-15T22:02:47.604Z,8.80
2018-07-15T22:06:32.217Z,9.23
2018-07-15T22:10:15.197Z,8.93
2018-07-15T22:13:48.171Z,10.50
2018-07-15T22:17:21.732Z,11.10
2018-07-15T22:20:54.968Z,11.70
2018-07-15T22:24:28.225Z,13.33
2018-07-15T22:28:02.012Z,12.43
2018-07-15T22:31:35.004Z,12.87
2018-07-15T22:35:08.283Z,14.10
2018-07-15T22:38:41.544Z,15.47
2018-07-15T22:42:14.789Z,12.80
2018-07-15T22:45:48.027Z,10.13
2018-07-15T22:49:21.261Z,9.77
2018-07-15T22:52:54.488Z,9.90
2018-07-15T22:56:27.715Z,11.40
2018-07-15T23:00:00.952Z,10.73
2018-07-15T23:03:34.190Z,10.40
2018-07-15T23:07:07.196Z,10.23
2018-07-15T23:10:40.195Z,10.60
2018-07-15T23:14:13.438Z,11.33
2018-07-15T23:17:46.868Z,11.43
2018-07-15T23:21:20.103Z,11.20
2018-07-15T23:24:53.328Z,11.60
2018-07-15T23:28:26.553Z,12.17
2018-07-15T23:31:59.804Z,10.73
2018-07-15T23:35:33.207Z,11.73
2018-07-15T23:39:06.479Z,10.77
2018-07-15T23:42:39.720Z,11.60
2018-07-15T23:46:13.005Z,10.07
2018-07-15T23:49:46.245Z,10.00
2018-07-15T23:53:19.479Z,11.27
2018-07-15T23:56:52.724Z,10.83
